sensor_id;sensor_type;location;lat;lon;timestamp;pressure;altitude;pressure_sealevel;temperature;humidity
60417;BME280;46263;44.726;10.396;2022-11-27T00:01:48;101822.59;;;9.74;62.30
60417;BME280;46263;44.726;10.396;2022-11-27T00:04:13;101820.75;;;9.71;62.27
60417;BME280;46263;44.726;10.396;2022-11-27T00:06:39;101830.16;;;9.73;62.52
60417;BME280;46263;44.726;10.396;2022-11-27T00:09:09;101834.31;;;9.78;62.29
60417;BME280;46263;44.726;10.396;2022-11-27T00:11:35;101831.72;;;9.74;62.32
60417;BME280;46263;44.726;10.396;2022-11-27T00:14:03;101825.94;;;9.78;62.23
60417;BME280;46263;44.726;10.396;2022-11-27T00:16:29;101821.34;;;9.75;62.24
60417;BME280;46263;44.726;10.396;2022-11-27T00:18:54;101812.66;;;9.73;62.01
60417;BME280;46263;44.726;10.396;2022-11-27T00:21:22;101815.56;;;9.64;62.49
60417;BME280;46263;44.726;10.396;2022-11-27T00:23:49;101820.47;;;9.69;62.49
60417;BME280;46263;44.726;10.396;2022-11-27T00:26:14;101819.78;;;9.74;62.25
60417;BME280;46263;44.726;10.396;2022-11-27T00:28:40;101816.59;;;9.81;62.11
60417;BME280;46263;44.726;10.396;2022-11-27T00:31:11;101820.09;;;9.76;62.18
60417;BME280;46263;44.726;10.396;2022-11-27T00:33:37;101821.03;;;9.73;62.55
60417;BME280;46263;44.726;10.396;2022-11-27T00:36:04;101811.50;;;9.79;62.35
60417;BME280;46263;44.726;10.396;2022-11-27T00:38:30;101819.00;;;9.73;62.31
60417;BME280;46263;44.726;10.396;2022-11-27T00:41:07;101806.31;;;9.72;62.42
60417;BME280;46263;44.726;10.396;2022-11-27T00:43:34;101810.81;;;9.70;62.71
60417;BME280;46263;44.726;10.396;2022-11-27T00:46:00;101822.59;;;9.74;62.45
60417;BME280;46263;44.726;10.396;2022-11-27T00:48:26;101818.06;;;9.76;62.15
60417;BME280;46263;44.726;10.396;2022-11-27T00:50:51;101827.69;;;9.75;62.55
60417;BME280;46263;44.726;10.396;2022-11-27T00:53:16;101822.97;;;9.67;62.87
60417;BME280;46263;44.726;10.396;2022-11-27T00:55:45;101822.97;;;9.67;62.81
60417;BME280;46263;44.726;10.396;2022-11-27T00:58:10;101819.88;;;9.65;63.00
60417;BME280;46263;44.726;10.396;2022-11-27T01:00:36;101815.56;;;9.64;63.02
60417;BME280;46263;44.726;10.396;2022-11-27T01:03:01;101815.16;;;9.71;63.13
60417;BME280;46263;44.726;10.396;2022-11-27T01:05:27;101818.06;;;9.76;63.20
60417;BME280;46263;44.726;10.396;2022-11-27T01:07:52;101816.59;;;9.81;63.08
60417;BME280;46263;44.726;10.396;2022-11-27T01:10:17;101809.88;;;9.73;63.01
60417;BME280;46263;44.726;10.396;2022-11-27T01:12:43;101808.03;;;9.70;62.61
60417;BME280;46263;44.726;10.396;2022-11-27T01:15:09;101815.94;;;9.71;62.78
60417;BME280;46263;44.726;10.396;2022-11-27T01:17:34;101803.81;;;9.74;62.70
60417;BME280;46263;44.726;10.396;2022-11-27T01:19:59;101805.16;;;9.79;62.44
60417;BME280;46263;44.726;10.396;2022-11-27T01:22:25;101806.13;;;9.76;62.45
60417;BME280;46263;44.726;10.396;2022-11-27T01:24:50;101807.84;;;9.73;62.71
60417;BME280;46263;44.726;10.396;2022-11-27T01:27:16;101800.75;;;9.72;62.56
60417;BME280;46263;44.726;10.396;2022-11-27T01:29:41;101801.78;;;9.75;62.49
60417;BME280;46263;44.726;10.396;2022-11-27T01:32:06;101797.66;;;9.70;62.48
60417;BME280;46263;44.726;10.396;2022-11-27T01:34:32;101793.22;;;9.64;62.70
60417;BME280;46263;44.726;10.396;2022-11-27T01:36:58;101795.72;;;9.62;63.05
60417;BME280;46263;44.726;10.396;2022-11-27T01:39:23;101795.34;;;9.54;63.02
60417;BME280;46263;44.726;10.396;2022-11-27T01:41:49;101801.31;;;9.48;63.07
60417;BME280;46263;44.726;10.396;2022-11-27T01:49:34;101809.00;;;9.52;62.91
60417;BME280;46263;44.726;10.396;2022-11-27T01:52:04;101802.94;;;9.54;62.88
60417;BME280;46263;44.726;10.396;2022-11-27T01:54:38;101803.63;;;9.63;62.93
60417;BME280;46263;44.726;10.396;2022-11-27T01:57:14;101799.19;;;9.57;63.16
60417;BME280;46263;44.726;10.396;2022-11-27T01:59:40;101798.03;;;9.63;63.12
60417;BME280;46263;44.726;10.396;2022-11-27T02:02:06;101797.47;;;9.59;63.58
60417;BME280;46263;44.726;10.396;2022-11-27T02:04:31;101800.53;;;9.33;64.01
60417;BME280;46263;44.726;10.396;2022-11-27T02:06:58;101795.53;;;9.51;63.36
60417;BME280;46263;44.726;10.396;2022-11-27T02:09:25;101802.47;;;9.55;62.31
60417;BME280;46263;44.726;10.396;2022-11-27T02:12:20;101796.91;;;9.55;62.45
60417;BME280;46263;44.726;10.396;2022-11-27T02:28:51;101792.66;;;9.46;62.78
60417;BME280;46263;44.726;10.396;2022-11-27T02:31:21;101794.00;;;9.50;62.77
60417;BME280;46263;44.726;10.396;2022-11-27T02:33:53;101792.34;;;9.44;63.18
60417;BME280;46263;44.726;10.396;2022-11-27T02:36:28;101780.69;;;9.45;63.00
60417;BME280;46263;44.726;10.396;2022-11-27T02:39:04;101776.09;;;9.42;63.19
60417;BME280;46263;44.726;10.396;2022-11-27T02:41:36;101768.59;;;9.48;63.13
60417;BME280;46263;44.726;10.396;2022-11-27T02:44:05;101754.63;;;9.48;63.12
60417;BME280;46263;44.726;10.396;2022-11-27T02:46:31;101751.84;;;9.48;62.57
60417;BME280;46263;44.726;10.396;2022-11-27T02:49:03;101755.13;;;9.47;62.59
60417;BME280;46263;44.726;10.396;2022-11-27T02:51:35;101754.34;;;9.46;62.79
60417;BME280;46263;44.726;10.396;2022-11-27T02:54:06;101750.69;;;9.40;62.89
60417;BME280;46263;44.726;10.396;2022-11-27T02:56:34;101757.16;;;9.32;63.35
60417;BME280;46263;44.726;10.396;2022-11-27T02:59:05;101753.56;;;9.31;63.14
60417;BME280;46263;44.726;10.396;2022-11-27T03:01:35;101756.84;;;9.30;63.08
60417;BME280;46263;44.726;10.396;2022-11-27T03:04:08;101756.66;;;9.33;62.92
60417;BME280;46263;44.726;10.396;2022-11-27T03:06:40;101756.66;;;9.33;63.12
60417;BME280;46263;44.726;10.396;2022-11-27T03:09:08;101755.22;;;9.23;63.16
60417;BME280;46263;44.726;10.396;2022-11-27T03:11:35;101751.84;;;9.19;63.97
60417;BME280;46263;44.726;10.396;2022-11-27T03:14:05;101748.75;;;9.17;63.50
60417;BME280;46263;44.726;10.396;2022-11-27T03:16:44;101753.78;;;9.28;63.49
60417;BME280;46263;44.726;10.396;2022-11-27T03:21:59;101757.63;;;9.30;63.30
60417;BME280;46263;44.726;10.396;2022-11-27T03:24:26;101755.97;;;9.38;63.06
60417;BME280;46263;44.726;10.396;2022-11-27T03:26:53;101755.03;;;9.41;62.83
60417;BME280;46263;44.726;10.396;2022-11-27T03:29:23;101755.03;;;9.41;62.76
60417;BME280;46263;44.726;10.396;2022-11-27T03:31:50;101749.66;;;9.38;62.39
60417;BME280;46263;44.726;10.396;2022-11-27T03:34:17;101752.91;;;9.36;62.35
60417;BME280;46263;44.726;10.396;2022-11-27T03:36:42;101748.84;;;9.37;62.06
60417;BME280;46263;44.726;10.396;2022-11-27T03:39:09;101749.53;;;9.32;62.54
60417;BME280;46263;44.726;10.396;2022-11-27T03:55:10;101750.41;;;9.24;62.50
60417;BME280;46263;44.726;10.396;2022-11-27T04:00:49;101746.66;;;9.27;62.55
60417;BME280;46263;44.726;10.396;2022-11-27T04:03:22;101755.69;;;9.22;62.76
60417;BME280;46263;44.726;10.396;2022-11-27T04:05:48;101751.47;;;9.26;62.68
60417;BME280;46263;44.726;10.396;2022-11-27T04:08:13;101746.19;;;9.28;63.01
60417;BME280;46263;44.726;10.396;2022-11-27T04:10:38;101750.50;;;9.29;62.58
60417;BME280;46263;44.726;10.396;2022-11-27T04:13:04;101754.56;;;9.28;62.38
60417;BME280;46263;44.726;10.396;2022-11-27T04:15:29;101749.94;;;9.25;62.27
60417;BME280;46263;44.726;10.396;2022-11-27T04:17:55;101753.47;;;9.26;62.31
60417;BME280;46263;44.726;10.396;2022-11-27T04:20:20;101753.66;;;9.22;62.74
60417;BME280;46263;44.726;10.396;2022-11-27T04:22:45;101752.72;;;9.25;62.58
60417;BME280;46263;44.726;10.396;2022-11-27T04:25:11;101753.97;;;9.24;62.35
60417;BME280;46263;44.726;10.396;2022-11-27T04:27:36;101747.81;;;9.20;62.67
60417;BME280;46263;44.726;10.396;2022-11-27T04:30:02;101750.41;;;9.24;62.47
60417;BME280;46263;44.726;10.396;2022-11-27T04:32:28;101757.25;;;9.23;62.61
60417;BME280;46263;44.726;10.396;2022-11-27T04:34:53;101760.31;;;9.10;62.48
60417;BME280;46263;44.726;10.396;2022-11-27T04:37:19;101762.50;;;9.06;62.69
60417;BME280;46263;44.726;10.396;2022-11-27T04:39:44;101757.50;;;9.10;62.82
60417;BME280;46263;44.726;10.396;2022-11-27T04:42:10;101754.34;;;9.17;62.57
60417;BME280;46263;44.726;10.396;2022-11-27T04:44:35;101749.72;;;9.14;62.44
60417;BME280;46263;44.726;10.396;2022-11-27T04:47:01;101762.72;;;9.17;62.85
60417;BME280;46263;44.726;10.396;2022-11-27T04:49:26;101757.44;;;9.19;62.94
60417;BME280;46263;44.726;10.396;2022-11-27T04:51:52;101762.72;;;9.17;62.70
60417;BME280;46263;44.726;10.396;2022-11-27T04:54:17;101753.41;;;9.20;62.51
60417;BME280;46263;44.726;10.396;2022-11-27T04:56:43;101763.75;;;9.20;62.23
60417;BME280;46263;44.726;10.396;2022-11-27T04:59:08;101750.31;;;9.18;62.50
60417;BME280;46263;44.726;10.396;2022-11-27T05:01:34;101759.31;;;9.13;62.64
60417;BME280;46263;44.726;10.396;2022-11-27T05:03:59;101763.97;;;9.16;62.72
60417;BME280;46263;44.726;10.396;2022-11-27T05:06:24;101767.81;;;9.19;62.60
60417;BME280;46263;44.726;10.396;2022-11-27T05:08:50;101771.84;;;9.18;62.26
60417;BME280;46263;44.726;10.396;2022-11-27T05:11:16;101770.13;;;9.20;62.54
60417;BME280;46263;44.726;10.396;2022-11-27T05:13:42;101766.00;;;9.16;62.68
60417;BME280;46263;44.726;10.396;2022-11-27T05:16:09;101763.38;;;9.12;62.57
60417;BME280;46263;44.726;10.396;2022-11-27T05:18:35;101772.50;;;9.13;62.51
60417;BME280;46263;44.726;10.396;2022-11-27T05:21:03;101774.53;;;9.12;62.49
60417;BME280;46263;44.726;10.396;2022-11-27T05:23:29;101771.47;;;9.10;62.04
60417;BME280;46263;44.726;10.396;2022-11-27T05:25:55;101775.50;;;9.09;62.48
60417;BME280;46263;44.726;10.396;2022-11-27T05:28:21;101770.66;;;9.10;62.12
60417;BME280;46263;44.726;10.396;2022-11-27T05:30:47;101767.59;;;9.08;62.15
60417;BME280;46263;44.726;10.396;2022-11-27T05:33:15;101772.78;;;9.00;61.85
60417;BME280;46263;44.726;10.396;2022-11-27T05:35:41;101774.31;;;9.01;62.33
60417;BME280;46263;44.726;10.396;2022-11-27T05:38:07;101775.88;;;9.02;62.57
60417;BME280;46263;44.726;10.396;2022-11-27T05:40:33;101775.69;;;9.06;61.92
60417;BME280;46263;44.726;10.396;2022-11-27T05:42:59;101771.03;;;9.03;61.74
60417;BME280;46263;44.726;10.396;2022-11-27T05:45:24;101774.63;;;9.03;61.87
60417;BME280;46263;44.726;10.396;2022-11-27T05:47:49;101783.25;;;9.05;61.72
60417;BME280;46263;44.726;10.396;2022-11-27T05:50:15;101783.84;;;9.09;61.73
60417;BME280;46263;44.726;10.396;2022-11-27T05:52:40;101784.53;;;9.04;61.78
60417;BME280;46263;44.726;10.396;2022-11-27T05:55:06;101784.69;;;9.01;62.30
60417;BME280;46263;44.726;10.396;2022-11-27T05:57:32;101780.84;;;8.98;61.68
60417;BME280;46263;44.726;10.396;2022-11-27T05:59:57;101791.41;;;8.94;61.82
60417;BME280;46263;44.726;10.396;2022-11-27T06:02:24;101783.13;;;8.85;61.99
60417;BME280;46263;44.726;10.396;2022-11-27T06:04:49;101783.59;;;8.84;62.13
60417;BME280;46263;44.726;10.396;2022-11-27T06:07:15;101791.19;;;8.83;61.91
60417;BME280;46263;44.726;10.396;2022-11-27T06:09:40;101796.75;;;8.83;61.82
60417;BME280;46263;44.726;10.396;2022-11-27T06:12:06;101790.19;;;8.72;61.94
60417;BME280;46263;44.726;10.396;2022-11-27T06:14:32;101791.44;;;8.71;62.29
60417;BME280;46263;44.726;10.396;2022-11-27T06:17:00;101801.53;;;8.69;62.13
60417;BME280;46263;44.726;10.396;2022-11-27T06:19:26;101806.22;;;8.63;62.62
60417;BME280;46263;44.726;10.396;2022-11-27T06:21:51;101811.78;;;8.63;62.40
60417;BME280;46263;44.726;10.396;2022-11-27T06:24:17;101804.97;;;8.64;62.48
60417;BME280;46263;44.726;10.396;2022-11-27T06:26:42;101803.25;;;8.66;62.46
60417;BME280;46263;44.726;10.396;2022-11-27T06:29:08;101809.00;;;8.63;62.11
60417;BME280;46263;44.726;10.396;2022-11-27T06:31:34;101802.81;;;8.59;62.21
60417;BME280;46263;44.726;10.396;2022-11-27T06:34:01;101800.16;;;8.64;62.76
60417;BME280;46263;44.726;10.396;2022-11-27T06:36:33;101807.63;;;8.58;62.57
60417;BME280;46263;44.726;10.396;2022-11-27T06:38:59;101799.28;;;8.58;62.78
60417;BME280;46263;44.726;10.396;2022-11-27T06:41:25;101803.44;;;8.63;62.71
60417;BME280;46263;44.726;10.396;2022-11-27T06:43:53;101804.59;;;8.71;62.60
60417;BME280;46263;44.726;10.396;2022-11-27T06:46:20;101792.66;;;8.70;62.54
60417;BME280;46263;44.726;10.396;2022-11-27T06:48:48;101788.66;;;8.71;62.57
60417;BME280;46263;44.726;10.396;2022-11-27T06:51:16;101795.94;;;8.69;62.36
60417;BME280;46263;44.726;10.396;2022-11-27T06:53:42;101797.19;;;8.68;62.12
60417;BME280;46263;44.726;10.396;2022-11-27T06:56:10;101806.03;;;8.66;62.23
60417;BME280;46263;44.726;10.396;2022-11-27T06:58:37;101805.91;;;8.61;62.23
60417;BME280;46263;44.726;10.396;2022-11-27T07:01:08;101814.09;;;8.64;62.13
60417;BME280;46263;44.726;10.396;2022-11-27T07:03:34;101816.56;;;8.62;62.63
60417;BME280;46263;44.726;10.396;2022-11-27T07:06:02;101811.47;;;8.61;62.16
60417;BME280;46263;44.726;10.396;2022-11-27T07:08:28;101811.91;;;8.68;62.26
60417;BME280;46263;44.726;10.396;2022-11-27T07:11:21;101817.28;;;8.72;62.55
60417;BME280;46263;44.726;10.396;2022-11-27T07:13:46;101812.84;;;8.65;62.21
60417;BME280;46263;44.726;10.396;2022-11-27T07:16:13;101820.72;;;8.67;62.59
60417;BME280;46263;44.726;10.396;2022-11-27T07:18:43;101828.13;;;8.70;62.95
60417;BME280;46263;44.726;10.396;2022-11-27T07:21:09;101821.91;;;8.74;62.34
60417;BME280;46263;44.726;10.396;2022-11-27T07:23:35;101830.56;;;8.76;62.39
60417;BME280;46263;44.726;10.396;2022-11-27T07:26:15;101820.00;;;8.80;62.37
60417;BME280;46263;44.726;10.396;2022-11-27T07:28:41;101819.53;;;8.82;62.81
60417;BME280;46263;44.726;10.396;2022-11-27T07:31:11;101834.13;;;8.77;62.74
60417;BME280;46263;44.726;10.396;2022-11-27T07:33:37;101829.69;;;8.71;62.88
60417;BME280;46263;44.726;10.396;2022-11-27T07:36:05;101830.09;;;8.78;62.58
60417;BME280;46263;44.726;10.396;2022-11-27T07:38:31;101826.94;;;8.85;62.86
60417;BME280;46263;44.726;10.396;2022-11-27T07:41:01;101832.94;;;8.92;62.67
60417;BME280;46263;44.726;10.396;2022-11-27T07:43:28;101825.88;;;9.06;62.68
60417;BME280;46263;44.726;10.396;2022-11-27T07:45:53;101823.47;;;9.13;62.81
60417;BME280;46263;44.726;10.396;2022-11-27T07:48:19;101821.56;;;9.19;62.30
60417;BME280;46263;44.726;10.396;2022-11-27T07:50:44;101819.94;;;9.27;62.53
60417;BME280;46263;44.726;10.396;2022-11-27T07:53:10;101817.72;;;9.31;62.34
60417;BME280;46263;44.726;10.396;2022-11-27T07:55:40;101819.19;;;9.41;62.08
60417;BME280;46263;44.726;10.396;2022-11-27T07:58:06;101815.53;;;9.49;62.81
60417;BME280;46263;44.726;10.396;2022-11-27T08:00:33;101806.97;;;9.53;62.50
60417;BME280;46263;44.726;10.396;2022-11-27T08:02:59;101805.38;;;9.61;62.67
60417;BME280;46263;44.726;10.396;2022-11-27T08:05:24;101805.94;;;9.65;62.81
60417;BME280;46263;44.726;10.396;2022-11-27T08:07:50;101805.16;;;9.79;62.71
60417;BME280;46263;44.726;10.396;2022-11-27T08:10:15;101809.59;;;9.85;62.73
60417;BME280;46263;44.726;10.396;2022-11-27T08:12:41;101811.22;;;9.92;62.37
60417;BME280;46263;44.726;10.396;2022-11-27T08:15:07;101819.53;;;10.01;62.70
60417;BME280;46263;44.726;10.396;2022-11-27T08:17:33;101814.41;;;9.99;61.91
60417;BME280;46263;44.726;10.396;2022-11-27T08:19:58;101817.69;;;9.98;62.02
60417;BME280;46263;44.726;10.396;2022-11-27T08:22:23;101822.47;;;9.97;61.62
60417;BME280;46263;44.726;10.396;2022-11-27T08:24:49;101822.84;;;9.90;62.06
60417;BME280;46263;44.726;10.396;2022-11-27T08:27:16;101825.28;;;9.97;61.94
60417;BME280;46263;44.726;10.396;2022-11-27T08:29:41;101827.28;;;9.97;62.14
60417;BME280;46263;44.726;10.396;2022-11-27T08:32:07;101832.69;;;10.00;62.17
60417;BME280;46263;44.726;10.396;2022-11-27T08:34:33;101830.84;;;10.12;62.52
60417;BME280;46263;44.726;10.396;2022-11-27T08:36:58;101826.91;;;10.18;62.58
60417;BME280;46263;44.726;10.396;2022-11-27T08:39:24;101825.63;;;10.33;62.26
60417;BME280;46263;44.726;10.396;2022-11-27T08:41:51;101828.28;;;10.42;62.59
60417;BME280;46263;44.726;10.396;2022-11-27T08:44:17;101830.19;;;10.51;62.08
60417;BME280;46263;44.726;10.396;2022-11-27T08:46:43;101835.59;;;10.54;62.50
60417;BME280;46263;44.726;10.396;2022-11-27T08:49:08;101829.88;;;10.63;62.32
60417;BME280;46263;44.726;10.396;2022-11-27T08:51:33;101831.53;;;10.55;62.43
60417;BME280;46263;44.726;10.396;2022-11-27T08:53:59;101836.66;;;10.77;62.62
60417;BME280;46263;44.726;10.396;2022-11-27T08:56:25;101828.41;;;10.88;63.03
60417;BME280;46263;44.726;10.396;2022-11-27T08:58:51;101830.31;;;10.96;62.75
60417;BME280;46263;44.726;10.396;2022-11-27T09:03:43;101832.81;;;11.14;63.13
60417;BME280;46263;44.726;10.396;2022-11-27T09:06:12;101828.81;;;11.20;62.97
60417;BME280;46263;44.726;10.396;2022-11-27T09:08:39;101822.56;;;11.31;62.59
60417;BME280;46263;44.726;10.396;2022-11-27T09:11:05;101822.38;;;11.34;62.56
60417;BME280;46263;44.726;10.396;2022-11-27T09:13:31;101833.75;;;11.31;61.86
60417;BME280;46263;44.726;10.396;2022-11-27T09:15:57;101837.63;;;11.13;61.49
60417;BME280;46263;44.726;10.396;2022-11-27T09:18:23;101827.56;;;11.02;61.55
60417;BME280;46263;44.726;10.396;2022-11-27T09:21:06;101831.78;;;10.92;62.15
60417;BME280;46263;44.726;10.396;2022-11-27T09:23:32;101830.34;;;11.21;61.98
60417;BME280;46263;44.726;10.396;2022-11-27T09:26:02;101833.63;;;11.00;63.05
60417;BME280;46263;44.726;10.396;2022-11-27T09:28:28;101834.44;;;11.01;63.13
60417;BME280;46263;44.726;10.396;2022-11-27T09:30:58;101840.50;;;10.99;63.35
60417;BME280;46263;44.726;10.396;2022-11-27T09:33:25;101831.19;;;11.08;63.40
60417;BME280;46263;44.726;10.396;2022-11-27T09:35:51;101832.47;;;11.07;63.30
60417;BME280;46263;44.726;10.396;2022-11-27T09:38:17;101825.31;;;11.25;63.48
60417;BME280;46263;44.726;10.396;2022-11-27T09:40:47;101831.31;;;11.38;62.96
60417;BME280;46263;44.726;10.396;2022-11-27T09:43:14;101827.03;;;11.23;62.16
60417;BME280;46263;44.726;10.396;2022-11-27T09:45:52;101818.28;;;11.35;61.93
60417;BME280;46263;44.726;10.396;2022-11-27T09:48:30;101828.66;;;11.29;62.78
60417;BME280;46263;44.726;10.396;2022-11-27T09:50:59;101830.78;;;11.60;62.72
60417;BME280;46263;44.726;10.396;2022-11-27T09:53:32;101826.69;;;11.55;62.37
60417;BME280;46263;44.726;10.396;2022-11-27T09:56:08;101831.94;;;11.73;62.25
60417;BME280;46263;44.726;10.396;2022-11-27T09:58:49;101815.84;;;11.93;61.98
60417;BME280;46263;44.726;10.396;2022-11-27T10:01:30;101808.50;;;11.71;63.75
60417;BME280;46263;44.726;10.396;2022-11-27T10:03:56;101811.09;;;11.80;63.53
60417;BME280;46263;44.726;10.396;2022-11-27T10:12:03;101801.66;;;12.02;62.53
60417;BME280;46263;44.726;10.396;2022-11-27T10:15:12;101799.38;;;12.06;62.97
60417;BME280;46263;44.726;10.396;2022-11-27T10:17:42;101790.69;;;12.04;62.45
60417;BME280;46263;44.726;10.396;2022-11-27T10:20:15;101791.75;;;12.12;62.05
60417;BME280;46263;44.726;10.396;2022-11-27T10:25:50;101781.31;;;11.77;62.38
60417;BME280;46263;44.726;10.396;2022-11-27T10:31:00;101783.78;;;12.00;62.59
60417;BME280;46263;44.726;10.396;2022-11-27T10:33:39;101784.47;;;11.90;62.54
60417;BME280;46263;44.726;10.396;2022-11-27T10:36:40;101783.72;;;11.89;62.61
60417;BME280;46263;44.726;10.396;2022-11-27T10:39:15;101773.88;;;12.04;62.56
60417;BME280;46263;44.726;10.396;2022-11-27T10:41:56;101773.72;;;12.19;61.58
60417;BME280;46263;44.726;10.396;2022-11-27T10:44:34;101760.06;;;12.37;61.38
60417;BME280;46263;44.726;10.396;2022-11-27T10:47:03;101755.59;;;12.14;61.49
60417;BME280;46263;44.726;10.396;2022-11-27T10:49:30;101749.06;;;12.28;61.29
60417;BME280;46263;44.726;10.396;2022-11-27T10:51:55;101745.59;;;12.44;60.47
60417;BME280;46263;44.726;10.396;2022-11-27T10:54:26;101736.75;;;12.62;59.99
60417;BME280;46263;44.726;10.396;2022-11-27T10:59:59;101714.19;;;12.93;58.57
60417;BME280;46263;44.726;10.396;2022-11-27T11:02:31;101711.41;;;12.98;60.57
60417;BME280;46263;44.726;10.396;2022-11-27T11:05:07;101711.69;;;13.11;58.31
60417;BME280;46263;44.726;10.396;2022-11-27T11:07:33;101708.63;;;13.15;57.56
60417;BME280;46263;44.726;10.396;2022-11-27T11:09:58;101718.28;;;13.03;56.98
60417;BME280;46263;44.726;10.396;2022-11-27T11:12:24;101710.66;;;13.14;56.51
60417;BME280;46263;44.726;10.396;2022-11-27T11:17:16;101709.63;;;13.12;55.69
60417;BME280;46263;44.726;10.396;2022-11-27T11:19:42;101700.94;;;13.10;55.61
60417;BME280;46263;44.726;10.396;2022-11-27T11:22:16;101695.88;;;13.30;55.68
60417;BME280;46263;44.726;10.396;2022-11-27T11:24:50;101687.97;;;13.29;56.74
60417;BME280;46263;44.726;10.396;2022-11-27T11:27:20;101686.94;;;13.43;57.97
60417;BME280;46263;44.726;10.396;2022-11-27T11:29:50;101676.72;;;13.45;56.86
60417;BME280;46263;44.726;10.396;2022-11-27T11:32:24;101671.91;;;13.46;56.80
60417;BME280;46263;44.726;10.396;2022-11-27T11:37:48;101665.72;;;13.74;57.21
60417;BME280;46263;44.726;10.396;2022-11-27T11:43:24;101676.75;;;13.56;56.81
60417;BME280;46263;44.726;10.396;2022-11-27T11:45:50;101675.47;;;13.30;56.92
60417;BME280;46263;44.726;10.396;2022-11-27T11:48:26;101658.88;;;13.37;57.30
60417;BME280;46263;44.726;10.396;2022-11-27T12:12:12;101654.03;;;13.38;57.53
60417;BME280;46263;44.726;10.396;2022-11-27T12:30:38;101640.00;;;13.43;57.10
60417;BME280;46263;44.726;10.396;2022-11-27T12:36:22;101633.34;;;13.52;57.37
60417;BME280;46263;44.726;10.396;2022-11-27T12:43:59;101605.72;;;13.77;56.45
60417;BME280;46263;44.726;10.396;2022-11-27T12:52:24;101600.88;;;13.72;57.15
60417;BME280;46263;44.726;10.396;2022-11-27T12:55:22;101594.94;;;13.81;57.41
60417;BME280;46263;44.726;10.396;2022-11-27T12:57:53;101587.03;;;13.91;57.38
60417;BME280;46263;44.726;10.396;2022-11-27T13:00:23;101586.78;;;13.83;57.69
60417;BME280;46263;44.726;10.396;2022-11-27T13:03:06;101583.94;;;13.94;57.47
60417;BME280;46263;44.726;10.396;2022-11-27T13:05:38;101581.94;;;13.84;56.99
60417;BME280;46263;44.726;10.396;2022-11-27T13:08:24;101582.50;;;13.71;56.84
60417;BME280;46263;44.726;10.396;2022-11-27T13:10:56;101582.13;;;13.97;58.19
60417;BME280;46263;44.726;10.396;2022-11-27T13:13:38;101581.31;;;14.07;56.50
60417;BME280;46263;44.726;10.396;2022-11-27T13:16:11;101582.16;;;13.86;57.07
60417;BME280;46263;44.726;10.396;2022-11-27T13:21:44;101580.88;;;13.87;56.56
60417;BME280;46263;44.726;10.396;2022-11-27T13:24:11;101583.44;;;13.90;56.63
60417;BME280;46263;44.726;10.396;2022-11-27T13:27:04;101573.69;;;14.02;57.64
60417;BME280;46263;44.726;10.396;2022-11-27T13:29:30;101567.06;;;13.94;56.63
60417;BME280;46263;44.726;10.396;2022-11-27T13:31:59;101561.22;;;13.81;55.85
60417;BME280;46263;44.726;10.396;2022-11-27T13:34:28;101568.63;;;13.84;57.49
60417;BME280;46263;44.726;10.396;2022-11-27T13:36:59;101553.78;;;13.89;58.46
60417;BME280;46263;44.726;10.396;2022-11-27T13:39:29;101558.38;;;13.92;57.91
60417;BME280;46263;44.726;10.396;2022-11-27T13:44:41;101552.28;;;13.88;57.27
60417;BME280;46263;44.726;10.396;2022-11-27T13:47:12;101544.88;;;13.85;57.78
60417;BME280;46263;44.726;10.396;2022-11-27T13:49:39;101539.50;;;13.87;57.67
60417;BME280;46263;44.726;10.396;2022-11-27T13:52:17;101541.56;;;13.81;59.14
60417;BME280;46263;44.726;10.396;2022-11-27T13:55:06;101535.94;;;13.81;57.43
60417;BME280;46263;44.726;10.396;2022-11-27T13:57:34;101531.38;;;13.78;57.71
60417;BME280;46263;44.726;10.396;2022-11-27T14:00:04;101529.56;;;13.81;58.77
60417;BME280;46263;44.726;10.396;2022-11-27T14:02:48;101537.00;;;13.78;58.74
60417;BME280;46263;44.726;10.396;2022-11-27T14:05:19;101526.50;;;13.79;58.42
60417;BME280;46263;44.726;10.396;2022-11-27T14:07:51;101527.56;;;13.76;57.80
60417;BME280;46263;44.726;10.396;2022-11-27T14:10:26;101518.88;;;13.68;57.74
60417;BME280;46263;44.726;10.396;2022-11-27T14:12:57;101519.41;;;13.72;58.24
60417;BME280;46263;44.726;10.396;2022-11-27T14:15:26;101518.88;;;13.74;58.83
60417;BME280;46263;44.726;10.396;2022-11-27T14:20:31;101523.97;;;13.75;58.57
60417;BME280;46263;44.726;10.396;2022-11-27T14:22:59;101523.94;;;13.81;58.50
60417;BME280;46263;44.726;10.396;2022-11-27T14:25:30;101518.31;;;13.81;58.41
60417;BME280;46263;44.726;10.396;2022-11-27T14:30:47;101516.03;;;13.79;59.66
60417;BME280;46263;44.726;10.396;2022-11-27T14:33:24;101521.94;;;13.76;57.91
60417;BME280;46263;44.726;10.396;2022-11-27T14:35:52;101515.53;;;13.75;58.14
60417;BME280;46263;44.726;10.396;2022-11-27T14:38:19;101510.47;;;13.68;58.74
60417;BME280;46263;44.726;10.396;2022-11-27T14:40:46;101506.84;;;13.73;58.81
60417;BME280;46263;44.726;10.396;2022-11-27T14:45:47;101497.94;;;13.69;58.92
60417;BME280;46263;44.726;10.396;2022-11-27T14:48:42;101508.19;;;13.67;58.57
60417;BME280;46263;44.726;10.396;2022-11-27T14:51:16;101513.53;;;13.70;59.39
60417;BME280;46263;44.726;10.396;2022-11-27T14:53:47;101515.56;;;13.70;58.92
60417;BME280;46263;44.726;10.396;2022-11-27T14:56:13;101514.53;;;13.67;59.49
60417;BME280;46263;44.726;10.396;2022-11-27T14:58:46;101509.97;;;13.64;58.57
60417;BME280;46263;44.726;10.396;2022-11-27T15:01:22;101509.97;;;13.64;58.33
60417;BME280;46263;44.726;10.396;2022-11-27T15:03:58;101507.41;;;13.66;59.06